Capt. Shawn D. Martinez — WDG3504 — position and weather

sailwx.info

Track history (hours):
 
Tides and Currents Weather Stations Pressure Air Temp Water Temp Dewpoint Dewpoint Depression Visibility Wind Speed Wind Dir Waves Ship Positions

Capt. Shawn D. Martinez

Owner: Blessey, Enterprises, Inc., Harahan, LA. More information available from US FCC via Universal Licensing System and Coast Guard Vessel Documentation Center.

Last reported at 2018-Jan-02 06:10 UTC. Time now 2018-Jan-19 21:23 UTC.
Position N 29°32' W 094°54'.
Warning: this ship's position is 17 days out of date.

Type: Towing. MMSI: 367056256.

Date/timePositionNaut miles runAvg speedWind from/ knotsBaromVisibWave heightAir tempDewpointWater temp
2018-Jan-02 06:10N 29°32' W 094°54'1 5.1
2018-Jan-02 06:00N 29°33' W 094°55'3 5.4
2018-Jan-02 05:30N 29°35' W 094°56'5 5.4
2018-Jan-02 04:30N 29°40' W 094°59'3 5.1
2018-Jan-02 04:00N 29°42' W 095°01'3 4.5
2018-Jan-02 03:18N 29°44' W 095°03'  
2017-Dec-30 19:36N 29°47' W 095°05'1 3.9
2017-Dec-30 19:16N 29°46' W 095°05'2 6.5
2017-Dec-30 19:00N 29°45' W 095°04'4 7.0
2017-Dec-30 18:30N 29°42' W 095°01'3 6.7
2017-Dec-30 18:00N 29°40' W 094°58'3 5.8
2017-Dec-30 17:30N 29°37' W 094°59'2 4.2
2017-Dec-30 17:00N 29°37' W 095°01'1 2.6
2017-Dec-30 16:30N 29°37' W 094°60'2 4.8
2017-Dec-30 16:00N 29°39' W 094°58'4 7.8
2017-Dec-30 15:29N 29°42' W 095°01'6 0.5
2017-Dec-30 03:43N 29°46' W 095°06'2 0.3
2017-Dec-29 22:45N 29°46' W 095°04'2 5.3
2017-Dec-29 22:23N 29°44' W 095°03'2 4.6
2017-Dec-29 21:57N 29°43' W 095°01'2 5.3
2017-Dec-29 21:30N 29°41' W 094°59'3 5.4
2017-Dec-29 21:00N 29°39' W 094°58'2 3.8
2017-Dec-29 20:30N 29°37' W 094°58'2 4.4
2017-Dec-29 20:00N 29°37' W 095°01'1 1.1
2017-Dec-29 19:30N 29°37' W 095°01'0 0.4
2017-Dec-29 19:00N 29°37' W 095°01'0 0.0
2017-Dec-29 18:30N 29°37' W 095°01'0 0.6
2017-Dec-29 18:00N 29°37' W 095°01'0 0.0
2017-Dec-29 17:30N 29°37' W 095°01'0 0.4
2017-Dec-29 17:00N 29°37' W 095°01'0 0.2
2017-Dec-29 16:30N 29°37' W 095°01'0 0.0
2017-Dec-29 16:00N 29°37' W 095°01'0 0.0
2017-Dec-29 15:30N 29°37' W 095°01'0 0.0
2017-Dec-29 15:00N 29°37' W 095°01'0 0.0
2017-Dec-29 14:30N 29°37' W 095°01'0 0.0
2017-Dec-29 14:00N 29°37' W 095°01'0 0.0
2017-Dec-29 13:30N 29°37' W 095°01'0 0.0
2017-Dec-29 13:00N 29°37' W 095°01'0 0.0
2017-Dec-29 12:30N 29°37' W 095°01'0 0.0
2017-Dec-29 12:00N 29°37' W 095°01'0 0.1
2017-Dec-29 11:30N 29°37' W 095°01'0 0.1
2017-Dec-29 11:00N 29°37' W 095°01'0 0.0
2017-Dec-29 10:30N 29°37' W 095°01'0 0.0
2017-Dec-29 10:00N 29°37' W 095°01'0 0.0
2017-Dec-29 09:30N 29°37' W 095°01'0 0.0
2017-Dec-29 09:00N 29°37' W 095°01'0 0.0
2017-Dec-29 08:30N 29°37' W 095°01'0 0.0
2017-Dec-29 08:00N 29°37' W 095°01'0 0.0
2017-Dec-29 07:30N 29°37' W 095°01'0 0.0
2017-Dec-29 07:00N 29°37' W 095°01'0 0.0
2017-Dec-29 06:30N 29°37' W 095°01'0 0.0
2017-Dec-29 06:00N 29°37' W 095°01'0 0.5
2017-Dec-29 05:30N 29°37' W 095°01'0 0.5
2017-Dec-29 05:00N 29°37' W 095°01'0 0.0
2017-Dec-29 04:30N 29°37' W 095°01'0 0.0
2017-Dec-29 04:00N 29°37' W 095°01'0 0.0
2017-Dec-29 03:30N 29°37' W 095°01'0 0.0
2017-Dec-29 03:00N 29°37' W 095°01'0 0.0
2017-Dec-29 02:30N 29°37' W 095°01'0 0.2
2017-Dec-29 02:00N 29°37' W 095°01'0 0.2
2017-Dec-29 01:30N 29°37' W 095°01'0 0.5
2017-Dec-29 01:00N 29°37' W 095°01'0 0.0
2017-Dec-29 00:30N 29°37' W 095°01'0 0.0
2017-Dec-29 00:00N 29°37' W 095°01'0 0.0
2017-Dec-28 23:30N 29°37' W 095°01'0 0.6
2017-Dec-28 23:00N 29°37' W 095°01'0 0.3
2017-Dec-28 22:30N 29°37' W 095°01'0 0.3
2017-Dec-28 22:00N 29°37' W 095°01'0 0.0
2017-Dec-28 21:30N 29°37' W 095°01'0 0.0
2017-Dec-28 21:00N 29°37' W 095°01'0 0.0
2017-Dec-28 20:30N 29°37' W 095°01'0 0.0
2017-Dec-28 20:00N 29°37' W 095°01'0 0.0
2017-Dec-28 19:30N 29°37' W 095°01'0 0.0
2017-Dec-28 19:00N 29°37' W 095°01'0 0.0
2017-Dec-28 18:30N 29°37' W 095°01'0 0.0
2017-Dec-28 18:00N 29°37' W 095°01'0 0.0
2017-Dec-28 17:30N 29°37' W 095°01'0 0.1
2017-Dec-28 17:00N 29°37' W 095°01'0 0.0
2017-Dec-28 16:30N 29°37' W 095°01'0 0.0
2017-Dec-28 16:00N 29°37' W 095°01'0 0.0
2017-Dec-28 15:30N 29°37' W 095°01'0 0.1
2017-Dec-28 15:00N 29°37' W 095°01'0 0.2
2017-Dec-28 14:30N 29°37' W 095°01'0 0.7
2017-Dec-28 14:00N 29°37' W 095°01'3 6.2
2017-Dec-28 13:30N 29°37' W 094°58'3 6.8
2017-Dec-28 13:00N 29°34' W 094°55'3 6.9
2017-Dec-28 12:30N 29°31' W 094°53'  
Track history (hours):
 
Tides and Currents Weather Stations Pressure Air Temp Water Temp Dewpoint Dewpoint Depression Visibility Wind Speed Wind Dir Waves Ship Positions

Capt. Shawn D. Martinez

Owner: Blessey, Enterprises, Inc., Harahan, LA. More information available from US FCC via Universal Licensing System and Coast Guard Vessel Documentation Center.

Last reported at 2018-Jan-02 06:10 UTC. Time now 2018-Jan-19 21:23 UTC.
Position N 29°32' W 094°54'.
Warning: this ship's position is 17 days out of date.

Type: Towing. MMSI: 367056256.

Date/timePositionNaut miles runAvg speedWind from/ knotsBaromVisibWave heightAir tempDewpointWater temp
2018-Jan-02 06:10N 29°32' W 094°54'1 5.1
2018-Jan-02 06:00N 29°33' W 094°55'3 5.4
2018-Jan-02 05:30N 29°35' W 094°56'5 5.4
2018-Jan-02 04:30N 29°40' W 094°59'3 5.1
2018-Jan-02 04:00N 29°42' W 095°01'3 4.5
2018-Jan-02 03:18N 29°44' W 095°03'  
2017-Dec-30 19:36N 29°47' W 095°05'1 3.9
2017-Dec-30 19:16N 29°46' W 095°05'2 6.5
2017-Dec-30 19:00N 29°45' W 095°04'4 7.0
2017-Dec-30 18:30N 29°42' W 095°01'3 6.7
2017-Dec-30 18:00N 29°40' W 094°58'3 5.8
2017-Dec-30 17:30N 29°37' W 094°59'2 4.2
2017-Dec-30 17:00N 29°37' W 095°01'1 2.6
2017-Dec-30 16:30N 29°37' W 094°60'2 4.8
2017-Dec-30 16:00N 29°39' W 094°58'4 7.8
2017-Dec-30 15:29N 29°42' W 095°01'6 0.5
2017-Dec-30 03:43N 29°46' W 095°06'2 0.3
2017-Dec-29 22:45N 29°46' W 095°04'2 5.3
2017-Dec-29 22:23N 29°44' W 095°03'2 4.6
2017-Dec-29 21:57N 29°43' W 095°01'2 5.3
2017-Dec-29 21:30N 29°41' W 094°59'3 5.4
2017-Dec-29 21:00N 29°39' W 094°58'2 3.8
2017-Dec-29 20:30N 29°37' W 094°58'2 4.4
2017-Dec-29 20:00N 29°37' W 095°01'1 1.1
2017-Dec-29 19:30N 29°37' W 095°01'0 0.4
2017-Dec-29 19:00N 29°37' W 095°01'0 0.0
2017-Dec-29 18:30N 29°37' W 095°01'0 0.6
2017-Dec-29 18:00N 29°37' W 095°01'0 0.0
2017-Dec-29 17:30N 29°37' W 095°01'0 0.4
2017-Dec-29 17:00N 29°37' W 095°01'0 0.2
2017-Dec-29 16:30N 29°37' W 095°01'0 0.0
2017-Dec-29 16:00N 29°37' W 095°01'0 0.0
2017-Dec-29 15:30N 29°37' W 095°01'0 0.0
2017-Dec-29 15:00N 29°37' W 095°01'0 0.0
2017-Dec-29 14:30N 29°37' W 095°01'0 0.0
2017-Dec-29 14:00N 29°37' W 095°01'0 0.0
2017-Dec-29 13:30N 29°37' W 095°01'0 0.0
2017-Dec-29 13:00N 29°37' W 095°01'0 0.0
2017-Dec-29 12:30N 29°37' W 095°01'0 0.0
2017-Dec-29 12:00N 29°37' W 095°01'0 0.1
2017-Dec-29 11:30N 29°37' W 095°01'0 0.1
2017-Dec-29 11:00N 29°37' W 095°01'0 0.0
2017-Dec-29 10:30N 29°37' W 095°01'0 0.0
2017-Dec-29 10:00N 29°37' W 095°01'0 0.0
2017-Dec-29 09:30N 29°37' W 095°01'0 0.0
2017-Dec-29 09:00N 29°37' W 095°01'0 0.0
2017-Dec-29 08:30N 29°37' W 095°01'0 0.0
2017-Dec-29 08:00N 29°37' W 095°01'0 0.0
2017-Dec-29 07:30N 29°37' W 095°01'0 0.0
2017-Dec-29 07:00N 29°37' W 095°01'0 0.0
2017-Dec-29 06:30N 29°37' W 095°01'0 0.0
2017-Dec-29 06:00N 29°37' W 095°01'0 0.5
2017-Dec-29 05:30N 29°37' W 095°01'0 0.5
2017-Dec-29 05:00N 29°37' W 095°01'0 0.0
2017-Dec-29 04:30N 29°37' W 095°01'0 0.0
2017-Dec-29 04:00N 29°37' W 095°01'0 0.0
2017-Dec-29 03:30N 29°37' W 095°01'0 0.0
2017-Dec-29 03:00N 29°37' W 095°01'0 0.0
2017-Dec-29 02:30N 29°37' W 095°01'0 0.2
2017-Dec-29 02:00N 29°37' W 095°01'0 0.2
2017-Dec-29 01:30N 29°37' W 095°01'0 0.5
2017-Dec-29 01:00N 29°37' W 095°01'0 0.0
2017-Dec-29 00:30N 29°37' W 095°01'0 0.0
2017-Dec-29 00:00N 29°37' W 095°01'0 0.0
2017-Dec-28 23:30N 29°37' W 095°01'0 0.6
2017-Dec-28 23:00N 29°37' W 095°01'0 0.3
2017-Dec-28 22:30N 29°37' W 095°01'0 0.3
2017-Dec-28 22:00N 29°37' W 095°01'0 0.0
2017-Dec-28 21:30N 29°37' W 095°01'0 0.0
2017-Dec-28 21:00N 29°37' W 095°01'0 0.0
2017-Dec-28 20:30N 29°37' W 095°01'0 0.0
2017-Dec-28 20:00N 29°37' W 095°01'0 0.0
2017-Dec-28 19:30N 29°37' W 095°01'0 0.0
2017-Dec-28 19:00N 29°37' W 095°01'0 0.0
2017-Dec-28 18:30N 29°37' W 095°01'0 0.0
2017-Dec-28 18:00N 29°37' W 095°01'0 0.0
2017-Dec-28 17:30N 29°37' W 095°01'0 0.1
2017-Dec-28 17:00N 29°37' W 095°01'0 0.0
2017-Dec-28 16:30N 29°37' W 095°01'0 0.0
2017-Dec-28 16:00N 29°37' W 095°01'0 0.0
2017-Dec-28 15:30N 29°37' W 095°01'0 0.1
2017-Dec-28 15:00N 29°37' W 095°01'0 0.2
2017-Dec-28 14:30N 29°37' W 095°01'0 0.7
2017-Dec-28 14:00N 29°37' W 095°01'3 6.2
2017-Dec-28 13:30N 29°37' W 094°58'3 6.8
2017-Dec-28 13:00N 29°34' W 094°55'3 6.9
2017-Dec-28 12:30N 29°31' W 094°53'  

Dump ship's entire track history